Time;durP1;ratioP1;P1;durP2;ratioP2;P2;SDS_P1;SDS_P2;PMS_P1;PMS_P2;Temp;Humidity;BMP_temperature;BMP_pressure;BME280_temperature;BME280_humidity;BME280_pressure;Samples;Min_cycle;Max_cycle;Signal;HPM_P1;HPM_P2
2023/08/06 00:00:25;;;;;;;;;0.00;0.00;;;;;;;;5092279;28;45251;-83
2023/08/06 00:02:51;;;;;;;;;0.00;0.00;;;;;;;;5064924;28;45572;-84
2023/08/06 00:05:21;;;;;;;;;1.00;0.00;;;;;;;;5075961;28;45902;-84
2023/08/06 00:07:49;;;;;;;;;2.00;0.00;;;;;;;;5057607;28;46189;-84
2023/08/06 00:10:14;;;;;;;;;0.00;0.00;;;;;;;;5056014;28;47568;-82
2023/08/06 00:12:39;;;;;;;;;0.00;0.00;;;;;;;;5074780;28;45403;-82
2023/08/06 00:15:05;;;;;;;;;0.00;0.00;;;;;;;;5054167;28;46194;-77
2023/08/06 00:17:30;;;;;;;;;0.00;0.00;;;;;;;;5070707;28;46406;-78
2023/08/06 00:19:56;;;;;;;;;0.00;0.00;;;;;;;;5067036;28;45905;-79
2023/08/06 00:22:21;;;;;;;;;0.00;0.00;;;;;;;;5070168;28;46033;-77
2023/08/06 00:24:46;;;;;;;;;1.00;0.00;;;;;;;;5052783;28;46664;-79
2023/08/06 00:27:11;;;;;;;;;2.00;1.00;;;;;;;;5055485;28;46440;-79
2023/08/06 00:29:37;;;;;;;;;0.00;0.00;;;;;;;;5050041;28;47159;-78
2023/08/06 00:32:02;;;;;;;;;0.00;0.00;;;;;;;;5055579;28;44860;-79
2023/08/06 00:34:28;;;;;;;;;0.33;0.33;;;;;;;;5054533;28;45479;-78
2023/08/06 00:36:54;;;;;;;;;0.00;0.00;;;;;;;;5073628;28;45751;-77
2023/08/06 00:39:21;;;;;;;;;2.25;0.00;;;;;;;;5065786;28;46953;-77
2023/08/06 00:41:46;;;;;;;;;0.00;0.00;;;;;;;;5072637;28;45630;-77
2023/08/06 00:44:12;;;;;;;;;1.00;0.00;;;;;;;;5073547;28;45741;-78
2023/08/06 00:46:37;;;;;;;;;1.00;0.00;;;;;;;;5066530;28;45474;-79
2023/08/06 00:49:04;;;;;;;;;0.00;0.00;;;;;;;;5047552;28;47256;-78
2023/08/06 00:51:29;;;;;;;;;1.25;0.00;;;;;;;;5053892;28;45443;-78
2023/08/06 00:53:59;;;;;;;;;0.33;0.33;;;;;;;;5048569;28;45451;-77
2023/08/06 00:56:27;;;;;;;;;1.00;1.00;;;;;;;;5072639;28;45892;-79
2023/08/06 00:58:53;;;;;;;;;0.00;0.00;;;;;;;;5069822;28;46567;-78
2023/08/06 01:01:20;;;;;;;;;0.67;0.67;;;;;;;;5061279;28;45550;-77
2023/08/06 01:03:46;;;;;;;;;1.00;1.00;;;;;;;;5071683;28;45521;-78
2023/08/06 01:06:11;;;;;;;;;1.67;0.00;;;;;;;;5054003;28;46036;-78
2023/08/06 01:09:09;;;;;;;;;0.00;0.00;;;;;;;;5053945;28;46749;-78
2023/08/06 01:11:57;;;;;;;;;2.00;1.00;;;;;;;;5015271;28;45552;-78
2023/08/06 01:14:33;;;;;;;;;0.00;0.00;;;;;;;;5022736;28;45497;-79
2023/08/06 01:16:59;;;;;;;;;1.00;0.00;;;;;;;;5052580;28;46863;-78
2023/08/06 01:19:25;;;;;;;;;1.33;0.00;;;;;;;;5052399;28;47815;-78
2023/08/06 01:21:50;;;;;;;;;1.00;0.00;;;;;;;;5067359;28;45442;-77
2023/08/06 01:24:15;;;;;;;;;1.00;1.00;;;;;;;;5070929;28;45864;-77
2023/08/06 01:26:59;;;;;;;;;0.75;0.25;;;;;;;;5070889;28;45535;-78
2023/08/06 01:29:43;;;;;;;;;2.00;0.75;;;;;;;;5062255;28;46821;-77
2023/08/06 01:32:11;;;;;;;;;0.00;0.00;;;;;;;;5067330;28;46081;-79
2023/08/06 01:34:38;;;;;;;;;1.67;1.33;;;;;;;;5052528;28;45740;-77
2023/08/06 01:37:04;;;;;;;;;1.00;1.00;;;;;;;;5065838;28;46928;-78
2023/08/06 01:39:32;;;;;;;;;1.00;1.00;;;;;;;;5053099;28;46101;-78
2023/08/06 01:41:58;;;;;;;;;2.33;1.00;;;;;;;;5055120;28;45758;-78
2023/08/06 01:44:23;;;;;;;;;1.00;1.00;;;;;;;;5055142;28;45928;-78
2023/08/06 01:46:51;;;;;;;;;1.67;1.00;;;;;;;;5042302;28;45725;-79
2023/08/06 01:49:16;;;;;;;;;5.00;2.00;;;;;;;;5073366;28;46326;-78
2023/08/06 01:51:41;;;;;;;;;4.33;1.33;;;;;;;;5074567;28;45697;-77
2023/08/06 01:54:07;;;;;;;;;1.00;1.00;;;;;;;;5078558;28;44844;-77
2023/08/06 01:56:32;;;;;;;;;1.33;1.00;;;;;;;;5080710;28;45775;-77
2023/08/06 01:58:58;;;;;;;;;1.33;1.00;;;;;;;;5057788;28;47012;-78
2023/08/06 02:01:23;;;;;;;;;2.00;2.00;;;;;;;;5062487;28;45458;-78
2023/08/06 02:03:48;;;;;;;;;2.67;1.67;;;;;;;;5056193;28;45528;-78
2023/08/06 02:06:13;;;;;;;;;2.00;2.00;;;;;;;;5064568;28;45661;-78
2023/08/06 02:08:39;;;;;;;;;4.67;1.00;;;;;;;;5064712;28;45831;-78
2023/08/06 02:11:04;;;;;;;;;2.00;1.67;;;;;;;;5055473;28;45538;-79
2023/08/06 02:13:30;;;;;;;;;2.33;1.33;;;;;;;;5074328;28;45751;-78
2023/08/06 02:15:55;;;;;;;;;1.67;1.67;;;;;;;;5055608;28;46021;-77
2023/08/06 02:18:20;;;;;;;;;3.33;2.00;;;;;;;;5040777;28;47125;-77
2023/08/06 02:20:56;;;;;;;;;1.33;1.33;;;;;;;;5053357;28;45676;-78
2023/08/06 02:23:22;;;;;;;;;1.00;1.00;;;;;;;;5067537;28;45478;-78
2023/08/06 02:25:47;;;;;;;;;1.00;1.00;;;;;;;;5071859;28;45398;-78
2023/08/06 02:28:12;;;;;;;;;1.33;1.33;;;;;;;;5070305;28;47294;-77
2023/08/06 02:30:37;;;;;;;;;3.33;0.67;;;;;;;;5052642;28;45391;-76
2023/08/06 02:33:02;;;;;;;;;3.00;2.00;;;;;;;;5059015;28;45647;-75
2023/08/06 02:35:28;;;;;;;;;4.00;3.00;;;;;;;;5071730;28;45619;-77
2023/08/06 02:37:53;;;;;;;;;3.00;2.33;;;;;;;;5067838;28;45429;-76
2023/08/06 02:40:18;;;;;;;;;1.67;1.67;;;;;;;;5054933;28;45438;-78
2023/08/06 02:42:44;;;;;;;;;2.00;1.00;;;;;;;;5073297;28;45865;-77
2023/08/06 02:45:09;;;;;;;;;1.33;1.33;;;;;;;;5055122;28;46116;-78
2023/08/06 02:47:34;;;;;;;;;2.00;2.00;;;;;;;;5063578;28;46412;-77
2023/08/06 02:50:00;;;;;;;;;4.00;3.00;;;;;;;;5055161;28;45962;-78
2023/08/06 02:52:25;;;;;;;;;4.00;1.00;;;;;;;;5069125;28;45927;-78
2023/08/06 02:54:51;;;;;;;;;2.00;2.00;;;;;;;;5055668;28;45877;-77
2023/08/06 02:57:16;;;;;;;;;1.67;1.67;;;;;;;;5040662;28;47206;-78
2023/08/06 02:59:41;;;;;;;;;3.00;1.67;;;;;;;;5054757;28;45466;-78
2023/08/06 03:02:07;;;;;;;;;2.00;2.00;;;;;;;;5065660;28;45431;-79
2023/08/06 03:04:32;;;;;;;;;1.33;1.33;;;;;;;;5069927;28;45573;-78
2023/08/06 03:06:57;;;;;;;;;2.00;2.00;;;;;;;;5055188;28;48199;-77
2023/08/06 03:09:22;;;;;;;;;1.33;1.33;;;;;;;;5055475;28;45573;-77
2023/08/06 03:11:48;;;;;;;;;3.00;2.00;;;;;;;;5060971;28;45886;-77
2023/08/06 03:14:13;;;;;;;;;2.00;2.00;;;;;;;;5061211;28;46060;-78
2023/08/06 03:16:38;;;;;;;;;2.00;2.00;;;;;;;;5054336;28;46319;-77
2023/08/06 03:19:03;;;;;;;;;6.00;2.00;;;;;;;;5046081;28;45923;-76
2023/08/06 03:21:29;;;;;;;;;2.00;1.33;;;;;;;;5061338;28;45504;-76
2023/08/06 03:23:54;;;;;;;;;3.00;3.00;;;;;;;;5065656;28;45475;-77
2023/08/06 03:26:19;;;;;;;;;1.67;1.67;;;;;;;;5072527;28;45600;-78
2023/08/06 03:28:44;;;;;;;;;4.00;3.00;;;;;;;;5072340;28;45948;-77
2023/08/06 03:31:10;;;;;;;;;5.00;4.00;;;;;;;;5071777;28;45887;-76
2023/08/06 03:33:35;;;;;;;;;4.00;2.00;;;;;;;;5054151;28;45812;-77
2023/08/06 03:36:00;;;;;;;;;2.33;2.33;;;;;;;;5072217;28;45436;-76
2023/08/06 03:38:26;;;;;;;;;5.00;2.33;;;;;;;;5072036;28;45383;-77
2023/08/06 03:40:51;;;;;;;;;2.00;2.00;;;;;;;;5072850;28;45717;-76
2023/08/06 03:43:16;;;;;;;;;5.00;4.00;;;;;;;;5053268;28;46087;-76
2023/08/06 03:45:41;;;;;;;;;1.33;1.33;;;;;;;;5072174;28;45407;-77
2023/08/06 03:48:07;;;;;;;;;4.67;2.00;;;;;;;;5070810;28;45507;-78
2023/08/06 03:50:33;;;;;;;;;3.00;2.00;;;;;;;;5053552;28;45759;-77
2023/08/06 03:52:58;;;;;;;;;2.33;1.33;;;;;;;;5053704;28;47368;-77
2023/08/06 03:55:23;;;;;;;;;6.67;1.67;;;;;;;;5053985;28;46918;-77
2023/08/06 03:57:48;;;;;;;;;3.00;3.00;;;;;;;;5053653;28;45407;-78
2023/08/06 04:00:14;;;;;;;;;2.00;2.00;;;;;;;;5072764;28;45950;-77
2023/08/06 04:02:39;;;;;;;;;2.00;2.00;;;;;;;;5071536;28;46167;-78
2023/08/06 04:05:05;;;;;;;;;3.33;3.33;;;;;;;;5072925;28;45400;-78
2023/08/06 04:07:30;;;;;;;;;2.00;2.00;;;;;;;;5040741;28;46042;-77
2023/08/06 04:09:57;;;;;;;;;3.33;3.00;;;;;;;;5073675;28;45790;-76
2023/08/06 04:12:22;;;;;;;;;4.67;3.67;;;;;;;;5071036;28;45569;-78
2023/08/06 04:14:47;;;;;;;;;5.00;3.00;;;;;;;;5061430;28;45945;-77
2023/08/06 04:17:13;;;;;;;;;2.00;2.00;;;;;;;;5072703;28;45941;-77
2023/08/06 04:19:38;;;;;;;;;4.00;3.00;;;;;;;;5069543;28;45552;-77
2023/08/06 04:22:03;;;;;;;;;4.00;3.00;;;;;;;;5050887;28;46010;-77
2023/08/06 04:24:29;;;;;;;;;4.00;3.00;;;;;;;;5071703;28;45579;-78
2023/08/06 04:26:54;;;;;;;;;3.67;2.67;;;;;;;;5063442;28;45477;-78
2023/08/06 04:29:19;;;;;;;;;4.67;2.00;;;;;;;;5073690;28;45946;-77
2023/08/06 04:31:44;;;;;;;;;4.00;1.67;;;;;;;;5071585;28;45889;-77
2023/08/06 04:34:09;;;;;;;;;3.00;2.33;;;;;;;;5072016;28;45773;-77
2023/08/06 04:36:35;;;;;;;;;3.00;3.00;;;;;;;;5075176;28;45864;-76
2023/08/06 04:39:00;;;;;;;;;3.00;3.00;;;;;;;;5080153;28;45369;-77
2023/08/06 04:41:25;;;;;;;;;3.33;3.33;;;;;;;;5064849;28;46003;-78
2023/08/06 04:43:51;;;;;;;;;5.00;3.00;;;;;;;;5076427;28;46191;-78
2023/08/06 04:46:16;;;;;;;;;3.00;3.00;;;;;;;;5055041;28;45818;-76
2023/08/06 04:48:41;;;;;;;;;3.67;3.67;;;;;;;;5053756;28;45783;-78
2023/08/06 04:51:06;;;;;;;;;3.00;2.33;;;;;;;;5052044;28;45657;-76
2023/08/06 04:53:50;;;;;;;;;3.00;3.00;;;;;;;;5053323;28;46974;-78
2023/08/06 04:56:15;;;;;;;;;2.00;2.00;;;;;;;;5055080;28;45260;-76
2023/08/06 04:58:41;;;;;;;;;3.00;3.00;;;;;;;;5062956;28;45683;-76
2023/08/06 05:01:06;;;;;;;;;3.00;3.00;;;;;;;;5044301;28;46283;-76
2023/08/06 05:03:31;;;;;;;;;3.00;3.00;;;;;;;;5045127;28;47295;-83
2023/08/06 05:05:56;;;;;;;;;6.33;2.00;;;;;;;;5074441;28;45834;-82
2023/08/06 05:08:22;;;;;;;;;2.00;2.00;;;;;;;;5065745;28;45572;-82
2023/08/06 05:10:47;;;;;;;;;2.00;2.00;;;;;;;;5077898;28;45374;-82
2023/08/06 05:13:12;;;;;;;;;3.33;2.00;;;;;;;;5057489;28;47248;-82
2023/08/06 05:15:39;;;;;;;;;5.00;4.00;;;;;;;;5068190;28;45334;-83
2023/08/06 05:18:04;;;;;;;;;3.33;3.00;;;;;;;;5078035;28;45370;-83
2023/08/06 05:20:30;;;;;;;;;5.00;3.33;;;;;;;;5073561;28;45398;-82
2023/08/06 05:22:55;;;;;;;;;3.33;3.33;;;;;;;;5056037;28;46571;-80
2023/08/06 05:25:21;;;;;;;;;3.00;2.00;;;;;;;;5073626;28;45508;-84
2023/08/06 05:27:46;;;;;;;;;3.67;1.67;;;;;;;;5073807;28;45594;-83
2023/08/06 05:30:11;;;;;;;;;2.00;2.00;;;;;;;;5055552;28;45835;-82
2023/08/06 05:32:37;;;;;;;;;3.00;3.00;;;;;;;;5058933;28;45700;-82
2023/08/06 05:35:02;;;;;;;;;3.33;2.33;;;;;;;;5056562;28;45467;-84
2023/08/06 05:37:28;;;;;;;;;2.00;2.00;;;;;;;;5055983;28;45472;-82
2023/08/06 05:39:53;;;;;;;;;2.33;1.00;;;;;;;;5058590;28;45877;-82
2023/08/06 05:42:18;;;;;;;;;2.00;2.00;;;;;;;;5059023;28;47658;-82
2023/08/06 05:44:43;;;;;;;;;4.33;3.33;;;;;;;;5078287;28;45335;-83
2023/08/06 05:47:09;;;;;;;;;2.00;2.00;;;;;;;;5060929;28;45355;-83
2023/08/06 05:49:34;;;;;;;;;2.67;2.67;;;;;;;;5078916;28;45454;-84
2023/08/06 05:51:59;;;;;;;;;3.00;3.00;;;;;;;;5079045;28;45507;-84
2023/08/06 05:54:25;;;;;;;;;1.67;1.67;;;;;;;;5057842;28;45837;-82
2023/08/06 05:56:50;;;;;;;;;3.33;3.33;;;;;;;;5071334;28;45457;-81
2023/08/06 05:59:15;;;;;;;;;2.00;2.00;;;;;;;;5069230;28;45546;-80
2023/08/06 06:01:40;;;;;;;;;2.67;2.00;;;;;;;;5070343;28;45405;-81
2023/08/06 06:04:06;;;;;;;;;3.00;3.00;;;;;;;;5070910;28;45399;-82
2023/08/06 06:06:31;;;;;;;;;4.33;2.00;;;;;;;;5058516;28;45410;-82
2023/08/06 06:08:56;;;;;;;;;2.00;2.00;;;;;;;;5058272;28;46452;-83
2023/08/06 06:11:22;;;;;;;;;3.00;2.33;;;;;;;;5074848;28;45360;-85
2023/08/06 06:13:48;;;;;;;;;3.67;1.00;;;;;;;;5059231;28;45655;-84
2023/08/06 06:16:14;;;;;;;;;2.33;2.33;;;;;;;;5064987;28;45400;-82
2023/08/06 06:18:39;;;;;;;;;2.00;2.00;;;;;;;;5058531;28;45976;-81
2023/08/06 06:21:04;;;;;;;;;2.67;2.67;;;;;;;;5059124;28;47512;-83
2023/08/06 06:23:30;;;;;;;;;2.67;1.00;;;;;;;;5063053;28;45504;-83
2023/08/06 06:25:55;;;;;;;;;2.75;1.50;;;;;;;;5063639;28;45371;-82
2023/08/06 06:28:21;;;;;;;;;1.00;1.00;;;;;;;;5081622;28;45544;-83
2023/08/06 06:30:46;;;;;;;;;4.00;2.33;;;;;;;;5062683;28;46940;-81
2023/08/06 06:33:11;;;;;;;;;2.00;2.00;;;;;;;;5079675;28;45941;-82
2023/08/06 06:35:36;;;;;;;;;1.67;1.67;;;;;;;;5060381;28;45503;-81
2023/08/06 06:38:02;;;;;;;;;1.75;1.75;;;;;;;;5074245;28;44781;-81
2023/08/06 06:40:27;;;;;;;;;0.00;0.00;;;;;;;;5065455;28;47132;-82
2023/08/06 06:42:53;;;;;;;;;2.25;1.50;;;;;;;;5067064;28;45498;-81
2023/08/06 06:45:18;;;;;;;;;1.75;1.25;;;;;;;;5086396;28;45600;-82
2023/08/06 06:47:43;;;;;;;;;3.00;2.00;;;;;;;;5069745;28;45676;-81
2023/08/06 06:50:09;;;;;;;;;1.50;1.50;;;;;;;;5070092;28;46622;-80
2023/08/06 06:52:34;;;;;;;;;1.75;1.75;;;;;;;;5073429;28;44789;-82
2023/08/06 06:54:59;;;;;;;;;3.50;2.00;;;;;;;;5061508;28;45666;-81
2023/08/06 06:57:24;;;;;;;;;3.00;1.00;;;;;;;;5055018;28;46306;-81
2023/08/06 06:59:50;;;;;;;;;1.25;1.25;;;;;;;;5078911;28;45740;-81
2023/08/06 07:02:15;;;;;;;;;0.00;0.00;;;;;;;;5058823;28;45866;-81
2023/08/06 07:04:40;;;;;;;;;2.00;2.00;;;;;;;;5060381;28;46165;-77
2023/08/06 07:07:06;;;;;;;;;1.00;1.00;;;;;;;;5074496;28;45577;-75
2023/08/06 07:09:31;;;;;;;;;2.50;2.00;;;;;;;;5055691;28;47181;-76
2023/08/06 07:11:56;;;;;;;;;1.00;1.00;;;;;;;;5074509;28;45457;-77
2023/08/06 07:14:23;;;;;;;;;3.00;1.75;;;;;;;;5074864;28;45518;-77
2023/08/06 07:16:48;;;;;;;;;1.00;1.00;;;;;;;;5056755;28;45722;-76
2023/08/06 07:19:13;;;;;;;;;3.00;0.25;;;;;;;;5056477;28;46960;-77
2023/08/06 07:21:38;;;;;;;;;0.25;0.25;;;;;;;;5050894;28;45785;-77
2023/08/06 07:24:04;;;;;;;;;3.00;2.00;;;;;;;;5077332;28;45853;-77
2023/08/06 07:26:29;;;;;;;;;0.25;0.25;;;;;;;;5068632;28;45406;-83
2023/08/06 07:28:54;;;;;;;;;0.50;0.50;;;;;;;;5055495;28;46736;-83
2023/08/06 07:31:19;;;;;;;;;1.75;1.75;;;;;;;;5066026;28;45357;-81
2023/08/06 07:33:45;;;;;;;;;1.00;1.00;;;;;;;;5072833;28;45749;-82
2023/08/06 07:36:11;;;;;;;;;1.00;1.00;;;;;;;;5074216;28;45525;-81
2023/08/06 07:38:36;;;;;;;;;2.50;1.25;;;;;;;;5073887;28;47303;-81
2023/08/06 07:41:02;;;;;;;;;1.25;1.25;;;;;;;;5075811;28;45544;-81
2023/08/06 07:43:27;;;;;;;;;1.00;1.00;;;;;;;;5055646;28;46048;-81
2023/08/06 07:45:53;;;;;;;;;1.00;1.00;;;;;;;;5074321;28;45579;-80
2023/08/06 07:48:29;;;;;;;;;2.00;1.00;;;;;;;;5075800;28;46326;-82
2023/08/06 07:50:54;;;;;;;;;2.00;2.00;;;;;;;;5057136;28;45839;-81
2023/08/06 07:53:20;;;;;;;;;1.00;1.00;;;;;;;;5075170;28;45455;-81
2023/08/06 07:55:49;;;;;;;;;1.75;1.00;;;;;;;;5055994;28;47029;-81
2023/08/06 07:58:15;;;;;;;;;2.00;2.00;;;;;;;;5073300;28;46718;-81
2023/08/06 08:00:42;;;;;;;;;2.25;1.25;;;;;;;;5074077;28;45430;-82
2023/08/06 08:03:07;;;;;;;;;2.00;1.00;;;;;;;;5043728;28;45629;-82
2023/08/06 08:05:33;;;;;;;;;1.00;1.00;;;;;;;;5056320;28;46636;-83
2023/08/06 08:07:58;;;;;;;;;0.75;0.75;;;;;;;;5055403;28;48421;-82
2023/08/06 08:10:24;;;;;;;;;0.50;0.50;;;;;;;;5074438;28;44835;-83
2023/08/06 08:12:49;;;;;;;;;1.75;1.50;;;;;;;;5074840;28;45732;-81
2023/08/06 08:15:15;;;;;;;;;1.00;1.00;;;;;;;;5070640;28;45686;-82
2023/08/06 08:17:40;;;;;;;;;0.50;0.50;;;;;;;;5075752;28;47012;-82
2023/08/06 08:20:06;;;;;;;;;2.00;2.00;;;;;;;;5076496;28;45441;-83
2023/08/06 08:22:31;;;;;;;;;1.25;1.00;;;;;;;;5061987;28;45699;-81
2023/08/06 08:24:56;;;;;;;;;1.25;1.00;;;;;;;;5075650;28;45491;-80
2023/08/06 08:27:21;;;;;;;;;1.50;1.00;;;;;;;;5078417;28;45512;-81
2023/08/06 08:29:47;;;;;;;;;1.00;1.00;;;;;;;;5068123;28;45347;-81
2023/08/06 08:32:12;;;;;;;;;1.00;1.00;;;;;;;;5066739;28;45871;-83
2023/08/06 08:34:37;;;;;;;;;2.00;2.00;;;;;;;;5056813;28;45722;-80
2023/08/06 08:37:02;;;;;;;;;1.00;1.00;;;;;;;;5073944;28;45720;-82
2023/08/06 08:39:28;;;;;;;;;1.00;1.00;;;;;;;;5054733;28;45395;-81
2023/08/06 08:41:53;;;;;;;;;4.00;2.00;;;;;;;;5073926;28;45421;-83
2023/08/06 08:44:18;;;;;;;;;2.00;1.25;;;;;;;;5073839;28;45481;-82
2023/08/06 08:46:44;;;;;;;;;3.75;2.50;;;;;;;;5063697;28;45988;-81
2023/08/06 08:49:10;;;;;;;;;1.00;1.00;;;;;;;;5045749;28;45437;-83
2023/08/06 08:51:36;;;;;;;;;4.00;2.50;;;;;;;;5054741;28;45881;-81
2023/08/06 08:54:02;;;;;;;;;1.00;1.00;;;;;;;;5061004;28;45804;-83
2023/08/06 08:56:28;;;;;;;;;2.00;2.00;;;;;;;;5054324;28;46235;-80
2023/08/06 08:58:55;;;;;;;;;1.75;1.75;;;;;;;;5054438;28;45426;-79
2023/08/06 09:01:21;;;;;;;;;4.00;3.75;;;;;;;;5072270;28;45876;-76
2023/08/06 09:03:47;;;;;;;;;6.00;3.25;;;;;;;;5073461;28;45494;-77
2023/08/06 09:06:17;;;;;;;;;3.50;2.75;;;;;;;;5075783;28;45367;-80
2023/08/06 09:08:47;;;;;;;;;3.75;3.75;;;;;;;;5082057;28;45505;-77
2023/08/06 09:11:12;;;;;;;;;1.50;1.50;;;;;;;;5075529;28;45078;-78
2023/08/06 09:13:38;;;;;;;;;3.00;1.00;;;;;;;;5056550;28;45754;-78
2023/08/06 09:16:03;;;;;;;;;2.50;1.25;;;;;;;;5049684;28;48057;-78
2023/08/06 09:18:29;;;;;;;;;2.00;1.25;;;;;;;;5046916;28;45880;-83
2023/08/06 09:20:55;;;;;;;;;3.75;2.00;;;;;;;;5075102;28;45976;-84
2023/08/06 09:23:20;;;;;;;;;1.75;1.00;;;;;;;;5081701;28;45371;-83
2023/08/06 09:25:53;;;;;;;;;0.75;0.75;;;;;;;;5069337;28;45900;-81
2023/08/06 09:28:19;;;;;;;;;1.20;1.20;;;;;;;;5062424;28;45656;-83
2023/08/06 09:30:47;;;;;;;;;0.25;0.25;;;;;;;;5062022;28;45429;-83
2023/08/06 09:33:17;;;;;;;;;0.75;0.75;;;;;;;;5060855;28;46983;-82
2023/08/06 09:35:55;;;;;;;;;0.25;0.25;;;;;;;;5062096;28;47030;-82
2023/08/06 09:38:28;;;;;;;;;1.00;0.75;;;;;;;;5078786;28;45445;-83
2023/08/06 09:41:01;;;;;;;;;1.00;1.00;;;;;;;;5062975;28;45487;-82
2023/08/06 09:43:26;;;;;;;;;0.00;0.00;;;;;;;;5065747;28;45461;-80
2023/08/06 09:45:51;;;;;;;;;0.50;0.50;;;;;;;;5062176;28;48185;-82
2023/08/06 09:48:24;;;;;;;;;3.00;3.00;;;;;;;;5078866;28;45436;-82
2023/08/06 09:50:52;;;;;;;;;2.00;1.25;;;;;;;;5060388;28;45468;-82
2023/08/06 09:53:19;;;;;;;;;4.00;2.00;;;;;;;;5062106;28;46212;-83
2023/08/06 09:55:45;;;;;;;;;1.25;1.25;;;;;;;;5060853;28;45392;-82
2023/08/06 09:58:23;;;;;;;;;1.00;1.00;;;;;;;;5081549;28;45406;-84
2023/08/06 10:00:55;;;;;;;;;2.00;2.00;;;;;;;;5062737;28;45792;-85
2023/08/06 10:03:20;;;;;;;;;0.75;0.75;;;;;;;;5080671;28;45694;-84
2023/08/06 10:05:46;;;;;;;;;1.00;1.00;;;;;;;;5061810;28;46448;-81
2023/08/06 10:08:11;;;;;;;;;1.00;1.00;;;;;;;;5056094;28;45451;-83
2023/08/06 10:10:37;;;;;;;;;2.00;2.00;;;;;;;;5064007;28;45441;-83
2023/08/06 10:13:07;;;;;;;;;1.75;1.75;;;;;;;;5081722;28;45853;-83
2023/08/06 10:15:33;;;;;;;;;1.00;1.00;;;;;;;;5077977;28;46439;-82
2023/08/06 10:17:59;;;;;;;;;2.00;1.00;;;;;;;;5060809;28;44881;-81
2023/08/06 10:20:24;;;;;;;;;1.00;1.00;;;;;;;;5079162;28;45822;-83
2023/08/06 10:23:03;;;;;;;;;1.00;1.00;;;;;;;;5054425;28;45507;-82
2023/08/06 10:25:32;;;;;;;;;1.00;1.00;;;;;;;;5079845;28;45603;-82
2023/08/06 10:27:58;;;;;;;;;2.25;2.25;;;;;;;;5058872;28;45864;-82
2023/08/06 10:30:31;;;;;;;;;3.75;1.50;;;;;;;;5056973;28;45420;-82
2023/08/06 10:33:02;;;;;;;;;1.00;0.00;;;;;;;;5074508;28;45887;-81
2023/08/06 10:35:29;;;;;;;;;0.00;0.00;;;;;;;;5053694;28;46243;-81
2023/08/06 10:37:59;;;;;;;;;1.50;0.00;;;;;;;;5067316;28;45602;-82
2023/08/06 10:40:25;;;;;;;;;1.75;1.00;;;;;;;;5075195;28;45791;-81
2023/08/06 10:42:51;;;;;;;;;1.00;1.00;;;;;;;;5056065;28;46748;-83
2023/08/06 10:45:19;;;;;;;;;1.00;0.00;;;;;;;;5050438;28;46969;-82
2023/08/06 10:47:45;;;;;;;;;0.00;0.00;;;;;;;;5074398;28;45714;-82
2023/08/06 10:50:20;;;;;;;;;2.00;2.00;;;;;;;;5073885;28;45690;-82
2023/08/06 10:52:46;;;;;;;;;1.00;1.00;;;;;;;;5060727;28;45892;-78
2023/08/06 10:55:11;;;;;;;;;2.00;2.00;;;;;;;;5067434;28;45186;-77
2023/08/06 10:57:37;;;;;;;;;1.00;1.00;;;;;;;;5072527;28;45703;-78
2023/08/06 11:00:04;;;;;;;;;1.00;1.00;;;;;;;;5045322;28;45564;-78
2023/08/06 11:02:33;;;;;;;;;1.00;0.50;;;;;;;;5054373;28;46949;-76
2023/08/06 11:04:58;;;;;;;;;1.75;1.00;;;;;;;;5062584;28;47043;-77
2023/08/06 11:07:28;;;;;;;;;1.75;1.00;;;;;;;;5059824;28;45804;-78
2023/08/06 11:10:00;;;;;;;;;0.75;0.75;;;;;;;;5064627;28;45904;-83
2023/08/06 11:12:25;;;;;;;;;2.25;1.00;;;;;;;;5064468;28;45536;-80
2023/08/06 11:14:51;;;;;;;;;0.25;0.25;;;;;;;;5056184;28;47186;-81
2023/08/06 11:17:16;;;;;;;;;0.00;0.00;;;;;;;;5072484;28;45775;-81
2023/08/06 11:19:42;;;;;;;;;0.00;0.00;;;;;;;;5060527;28;45594;-76
2023/08/06 11:22:07;;;;;;;;;2.00;1.50;;;;;;;;5059249;28;45498;-78
2023/08/06 11:24:32;;;;;;;;;1.50;0.25;;;;;;;;5085961;28;46444;-76
2023/08/06 11:26:58;;;;;;;;;3.50;2.00;;;;;;;;5079331;28;45953;-78
2023/08/06 11:29:24;;;;;;;;;0.25;0.25;;;;;;;;5074087;28;45588;-77
2023/08/06 11:31:49;;;;;;;;;1.50;1.50;;;;;;;;5074245;28;46015;-82
2023/08/06 11:34:14;;;;;;;;;1.50;1.00;;;;;;;;5075914;28;45736;-81
2023/08/06 11:36:40;;;;;;;;;1.00;1.00;;;;;;;;5075699;28;45926;-81
2023/08/06 11:39:06;;;;;;;;;2.00;2.00;;;;;;;;5053658;28;45548;-82
2023/08/06 11:41:32;;;;;;;;;1.25;1.25;;;;;;;;5051683;28;45824;-82
2023/08/06 11:43:58;;;;;;;;;0.50;0.50;;;;;;;;5067225;28;47350;-81
2023/08/06 11:46:24;;;;;;;;;3.00;1.00;;;;;;;;5059497;28;45379;-81
2023/08/06 11:48:56;;;;;;;;;1.50;1.50;;;;;;;;5056246;28;45405;-82
2023/08/06 11:51:28;;;;;;;;;1.00;1.00;;;;;;;;5076900;28;45439;-81
2023/08/06 11:53:57;;;;;;;;;0.25;0.25;;;;;;;;5044253;28;47645;-81
2023/08/06 11:56:23;;;;;;;;;0.75;0.75;;;;;;;;5052278;28;46507;-81
2023/08/06 11:58:49;;;;;;;;;1.75;0.75;;;;;;;;5052753;28;45463;-81
2023/08/06 12:01:14;;;;;;;;;1.00;0.50;;;;;;;;5048145;28;46004;-82
2023/08/06 12:03:40;;;;;;;;;0.00;0.00;;;;;;;;5042721;28;47269;-82
2023/08/06 12:06:05;;;;;;;;;2.00;1.00;;;;;;;;5050602;28;45850;-81
2023/08/06 12:08:30;;;;;;;;;4.00;1.00;;;;;;;;5051143;28;45513;-83
2023/08/06 12:10:55;;;;;;;;;2.25;1.25;;;;;;;;5050992;28;45744;-81
2023/08/06 12:13:21;;;;;;;;;0.00;0.00;;;;;;;;5051779;28;45537;-81
2023/08/06 12:15:46;;;;;;;;;1.75;1.00;;;;;;;;5050191;28;45417;-83
2023/08/06 12:18:11;;;;;;;;;2.50;1.00;;;;;;;;5051928;28;45509;-83
2023/08/06 12:20:38;;;;;;;;;1.25;1.25;;;;;;;;5050763;28;45795;-82
2023/08/06 12:23:03;;;;;;;;;3.75;1.75;;;;;;;;5050075;28;47291;-83
2023/08/06 12:25:29;;;;;;;;;1.75;0.00;;;;;;;;5052036;28;45356;-82
2023/08/06 12:27:54;;;;;;;;;2.00;2.00;;;;;;;;5050892;28;45920;-80
2023/08/06 12:30:19;;;;;;;;;2.00;0.25;;;;;;;;5051553;28;45759;-80
2023/08/06 12:32:44;;;;;;;;;0.25;0.25;;;;;;;;5049970;28;45558;-82
2023/08/06 12:35:09;;;;;;;;;2.25;1.50;;;;;;;;5051811;28;45631;-83
2023/08/06 12:37:35;;;;;;;;;1.75;1.00;;;;;;;;5050784;28;45403;-83
2023/08/06 12:40:00;;;;;;;;;2.75;2.00;;;;;;;;5051083;28;46585;-83
2023/08/06 12:42:25;;;;;;;;;2.50;1.50;;;;;;;;5037544;28;48079;-82
2023/08/06 12:44:51;;;;;;;;;1.00;1.00;;;;;;;;5052925;28;45593;-83
2023/08/06 12:47:17;;;;;;;;;4.75;1.00;;;;;;;;5053395;28;45556;-83
2023/08/06 12:49:42;;;;;;;;;1.00;1.00;;;;;;;;5055432;28;45807;-83
2023/08/06 12:52:12;;;;;;;;;3.00;1.00;;;;;;;;5053578;28;47292;-82
2023/08/06 12:54:38;;;;;;;;;3.25;1.25;;;;;;;;5068576;28;45547;-83
2023/08/06 12:57:03;;;;;;;;;1.25;1.25;;;;;;;;5049979;28;46238;-83
2023/08/06 12:59:29;;;;;;;;;4.25;2.00;;;;;;;;5073060;28;46015;-83
2023/08/06 13:01:54;;;;;;;;;2.00;1.00;;;;;;;;5066062;28;45930;-82
2023/08/06 13:04:20;;;;;;;;;1.00;1.00;;;;;;;;5053366;28;45804;-82
2023/08/06 13:06:45;;;;;;;;;2.00;1.00;;;;;;;;5072282;28;45957;-84
2023/08/06 13:09:10;;;;;;;;;2.00;2.00;;;;;;;;5053896;28;46836;-82
2023/08/06 13:11:37;;;;;;;;;1.75;1.75;;;;;;;;5063611;28;45480;-84
2023/08/06 13:14:10;;;;;;;;;1.00;1.00;;;;;;;;5049479;28;45474;-82
2023/08/06 13:16:36;;;;;;;;;2.75;2.75;;;;;;;;5062925;28;45554;-83
2023/08/06 13:19:02;;;;;;;;;1.00;1.00;;;;;;;;5072052;28;45594;-82
2023/08/06 13:21:45;;;;;;;;;2.00;2.00;;;;;;;;5072351;28;45674;-81
2023/08/06 13:24:11;;;;;;;;;5.25;2.00;;;;;;;;5071743;28;45993;-81
2023/08/06 13:26:36;;;;;;;;;1.00;1.00;;;;;;;;5072763;28;45529;-82
2023/08/06 13:29:02;;;;;;;;;2.00;2.00;;;;;;;;5075513;28;45449;-82
2023/08/06 13:31:27;;;;;;;;;1.00;1.00;;;;;;;;5080069;28;46275;-83
2023/08/06 13:33:57;;;;;;;;;1.00;1.00;;;;;;;;5068808;28;45219;-83
2023/08/06 13:36:23;;;;;;;;;1.00;1.00;;;;;;;;5079352;28;45730;-84
2023/08/06 13:38:49;;;;;;;;;1.00;1.00;;;;;;;;5072877;28;45625;-82
2023/08/06 13:41:14;;;;;;;;;2.50;1.00;;;;;;;;5054100;28;45579;-81
2023/08/06 13:43:39;;;;;;;;;1.00;1.00;;;;;;;;5051237;28;45430;-82
2023/08/06 13:46:05;;;;;;;;;0.75;0.25;;;;;;;;5057000;28;45375;-80
2023/08/06 13:48:30;;;;;;;;;3.00;2.00;;;;;;;;5068450;28;46901;-82
2023/08/06 13:50:55;;;;;;;;;3.00;2.00;;;;;;;;5066349;28;45387;-82
2023/08/06 13:53:20;;;;;;;;;1.75;0.75;;;;;;;;5050730;28;45395;-83
2023/08/06 13:55:46;;;;;;;;;1.00;1.00;;;;;;;;5078478;28;45606;-82
2023/08/06 13:58:11;;;;;;;;;2.00;1.00;;;;;;;;5060044;28;45711;-83
2023/08/06 14:00:37;;;;;;;;;1.00;1.00;;;;;;;;5076243;28;45643;-81
2023/08/06 14:03:03;;;;;;;;;1.00;1.00;;;;;;;;5073814;28;45740;-84
2023/08/06 14:05:28;;;;;;;;;1.00;1.00;;;;;;;;5065310;28;45557;-81
2023/08/06 14:07:54;;;;;;;;;1.00;1.00;;;;;;;;5050243;28;45980;-78
2023/08/06 14:10:19;;;;;;;;;2.50;2.50;;;;;;;;5050978;28;46152;-78
2023/08/06 14:12:44;;;;;;;;;1.00;1.00;;;;;;;;5070238;28;45449;-78
2023/08/06 14:15:11;;;;;;;;;2.00;2.00;;;;;;;;5051356;28;45820;-77
2023/08/06 14:17:36;;;;;;;;;1.50;1.00;;;;;;;;5069357;28;45559;-78
2023/08/06 14:20:04;;;;;;;;;3.00;1.00;;;;;;;;5070754;28;45690;-79
2023/08/06 14:22:31;;;;;;;;;2.00;1.00;;;;;;;;5069333;28;45789;-78
2023/08/06 14:24:56;;;;;;;;;3.25;2.25;;;;;;;;5069670;28;45448;-77
2023/08/06 14:27:21;;;;;;;;;1.00;1.00;;;;;;;;5051054;28;45620;-77
2023/08/06 14:29:46;;;;;;;;;1.00;1.00;;;;;;;;5051655;28;46935;-77
2023/08/06 14:32:12;;;;;;;;;3.50;2.00;;;;;;;;5072823;28;45699;-77
2023/08/06 14:34:37;;;;;;;;;2.50;2.25;;;;;;;;5073269;28;46664;-77
2023/08/06 14:37:02;;;;;;;;;1.00;1.00;;;;;;;;5074105;28;45530;-78